Terminal Aerodrome Forecast
Issued by NWS Mt. Holly, NJ

Home | Current Version | Previous Version | Text Only | Print | Product List | Glossary On
Versions: 1 2 3 4 5 6 7 8 9 10 11 12 13 14 15 16 17 18 19 20 21
000
FTUS41 KPHI 281100
TAFPHL
TAF
KPHL 281132Z 2812/2918 33012G20KT P6SM SKC
     FM282300 32010KT P6SM SKC
     FM290400 35006KT P6SM SCT250
     FM291400 04006KT P6SM SCT250=

USA.gov is the U.S. government's official web portal to all federal, state and local government web resources and services.